Time;durP1;ratioP1;P1;durP2;ratioP2;P2;SDS_P1;SDS_P2;PMS_P1;PMS_P2;Temp;Humidity;BMP_temperature;BMP_pressure;BME280_temperature;BME280_humidity;BME280_pressure;Samples;Min_cycle;Max_cycle;Signal;HPM_P1;HPM_P2
2021/08/25 00:00:06;;;;;;;5.93;4.33;;;12.80;99.90;;;;;;5109540;27;20560;-43
2021/08/25 00:02:41;;;;;;;6.47;4.13;;;12.90;99.90;;;;;;5116097;27;20224;-50
2021/08/25 00:05:09;;;;;;;5.13;3.77;;;12.80;99.90;;;;;;5093274;27;22303;-48
2021/08/25 00:07:35;;;;;;;5.30;4.47;;;12.80;99.90;;;;;;5119470;27;20197;-51
2021/08/25 00:10:02;;;;;;;6.67;4.00;;;12.80;99.90;;;;;;5121643;27;20192;-49
2021/08/25 00:12:30;;;;;;;8.93;4.27;;;12.70;99.90;;;;;;5125741;27;20220;-49
2021/08/25 00:14:57;;;;;;;5.33;4.13;;;12.70;99.90;;;;;;5119483;27;20188;-46
2021/08/25 00:17:24;;;;;;;6.37;4.23;;;12.70;99.90;;;;;;5117081;27;20192;-47
2021/08/25 00:19:51;;;;;;;4.27;3.83;;;12.70;99.90;;;;;;5121887;27;20563;-47
2021/08/25 00:22:18;;;;;;;6.37;4.20;;;12.70;99.90;;;;;;5110530;27;20227;-50
2021/08/25 00:24:45;;;;;;;7.70;3.90;;;12.70;99.90;;;;;;5124086;27;20209;-46
2021/08/25 00:27:11;;;;;;;3.83;3.40;;;12.60;99.90;;;;;;5117626;27;20196;-47
2021/08/25 00:29:38;;;;;;;4.43;3.80;;;12.40;99.90;;;;;;5115118;27;20201;-48
2021/08/25 00:32:06;;;;;;;7.93;4.40;;;12.40;99.90;;;;;;5111376;27;20215;-44
2021/08/25 00:34:33;;;;;;;5.47;3.30;;;12.40;99.90;;;;;;5119853;27;20567;-53
2021/08/25 00:37:01;;;;;;;5.13;4.00;;;12.40;99.90;;;;;;5104350;27;20193;-44
2021/08/25 00:39:27;;;;;;;4.27;3.63;;;12.30;99.90;;;;;;5117377;27;20204;-48
2021/08/25 00:41:54;;;;;;;5.17;3.70;;;12.30;99.90;;;;;;5127120;27;20223;-43
2021/08/25 00:44:21;;;;;;;4.60;3.90;;;12.30;99.90;;;;;;5119421;27;20200;-46
2021/08/25 00:46:47;;;;;;;5.40;4.17;;;12.20;99.90;;;;;;5110182;27;20194;-49
2021/08/25 00:49:14;;;;;;;5.40;4.00;;;12.20;99.90;;;;;;5102421;28;20883;-46
2021/08/25 00:51:44;;;;;;;4.50;3.83;;;12.10;99.90;;;;;;5118646;27;20227;-49
2021/08/25 00:54:12;;;;;;;4.40;3.83;;;12.10;99.90;;;;;;5104450;27;20849;-47
2021/08/25 00:56:38;;;;;;;4.53;3.97;;;12.10;99.90;;;;;;5126782;27;20188;-47
2021/08/25 00:59:06;;;;;;;6.13;3.90;;;12.20;99.90;;;;;;5109228;27;20209;-46
2021/08/25 01:01:39;;;;;;;5.03;3.73;;;12.20;99.90;;;;;;5107062;28;20767;-51
2021/08/25 01:04:13;;;;;;;5.37;3.50;;;12.10;99.90;;;;;;5101794;28;20568;-47
2021/08/25 01:06:40;;;;;;;6.60;4.30;;;12.00;99.90;;;;;;5105778;27;20692;-53
2021/08/25 01:09:07;;;;;;;5.37;3.70;;;12.00;99.90;;;;;;5110747;27;20207;-46
2021/08/25 01:11:35;;;;;;;4.43;3.50;;;11.90;99.90;;;;;;5129978;27;20228;-50
2021/08/25 01:14:03;;;;;;;5.03;4.27;;;11.90;99.90;;;;;;5119291;27;20216;-48
2021/08/25 01:16:30;;;;;;;5.23;4.20;;;12.00;99.90;;;;;;5125336;27;20207;-48
2021/08/25 01:18:58;;;;;;;6.00;3.80;;;12.00;99.90;;;;;;5123492;27;20189;-46
2021/08/25 01:21:26;;;;;;;5.67;4.33;;;12.00;99.90;;;;;;5123977;27;20241;-47
2021/08/25 01:23:54;;;;;;;5.60;3.87;;;11.90;99.90;;;;;;5108087;27;20207;-44
2021/08/25 01:26:21;;;;;;;5.03;3.50;;;11.80;99.90;;;;;;5122651;27;20213;-49
2021/08/25 01:28:52;;;;;;;3.80;2.93;;;11.80;99.90;;;;;;5125467;27;20274;-46
2021/08/25 01:31:21;;;;;;;5.20;4.00;;;11.70;99.90;;;;;;5117812;27;20242;-48
2021/08/25 01:33:48;;;;;;;5.37;4.03;;;11.80;99.90;;;;;;5128379;27;20224;-47
2021/08/25 01:36:17;;;;;;;4.07;3.67;;;11.70;99.90;;;;;;5124731;27;20188;-49
2021/08/25 01:38:49;;;;;;;4.20;3.70;;;11.70;99.90;;;;;;5112162;27;20204;-49
2021/08/25 01:41:15;;;;;;;3.70;3.13;;;11.60;99.90;;;;;;5118887;27;20236;-50
2021/08/25 01:43:42;;;;;;;6.10;3.43;;;11.60;99.90;;;;;;5132068;27;20658;-48
2021/08/25 01:46:09;;;;;;;6.97;3.80;;;11.60;99.90;;;;;;5097649;27;20205;-48
2021/08/25 01:48:37;;;;;;;4.20;3.67;;;11.50;99.90;;;;;;5117465;27;20189;-49
2021/08/25 01:51:04;;;;;;;3.77;3.43;;;11.50;99.90;;;;;;5114801;27;20228;-46
2021/08/25 01:53:31;;;;;;;9.77;4.40;;;11.50;99.90;;;;;;5100985;27;20282;-48
2021/08/25 01:55:57;;;;;;;4.20;3.80;;;11.60;99.90;;;;;;5110099;27;20205;-45
2021/08/25 01:58:24;;;;;;;5.67;3.83;;;11.60;99.90;;;;;;5123252;27;20180;-46
2021/08/25 02:00:51;;;;;;;7.67;3.80;;;11.60;99.90;;;;;;5117615;27;20217;-45
2021/08/25 02:03:17;;;;;;;5.27;3.80;;;11.70;99.90;;;;;;5106174;27;20923;-51
2021/08/25 02:05:45;;;;;;;5.43;3.60;;;11.60;99.90;;;;;;5117926;27;20216;-50
2021/08/25 02:08:12;;;;;;;3.93;3.60;;;11.60;99.90;;;;;;5108987;27;20181;-47
2021/08/25 02:10:39;;;;;;;7.80;3.73;;;11.50;99.90;;;;;;5112206;27;20257;-49
2021/08/25 02:13:06;;;;;;;4.63;3.20;;;11.50;99.90;;;;;;5115551;27;20248;-49
2021/08/25 02:15:33;;;;;;;4.77;3.53;;;11.40;99.90;;;;;;5131768;27;20185;-50
2021/08/25 02:17:59;;;;;;;4.87;3.93;;;11.40;99.90;;;;;;5118281;27;20543;-45
2021/08/25 02:20:26;;;;;;;7.07;3.70;;;11.40;99.90;;;;;;5113996;27;20192;-47
2021/08/25 02:22:54;;;;;;;4.67;3.67;;;11.40;99.90;;;;;;5120298;28;20213;-45
2021/08/25 02:25:20;;;;;;;5.30;3.60;;;11.50;99.90;;;;;;5105094;27;20228;-49
2021/08/25 02:27:48;;;;;;;5.20;3.53;;;11.50;99.90;;;;;;5126501;27;20763;-45
2021/08/25 02:30:15;;;;;;;4.77;3.93;;;11.50;99.90;;;;;;5109750;27;20182;-54
2021/08/25 02:32:42;;;;;;;4.30;3.83;;;11.40;99.90;;;;;;5123249;27;20307;-52
2021/08/25 02:35:09;;;;;;;5.60;3.80;;;11.40;99.90;;;;;;5116374;27;20963;-52
2021/08/25 02:37:36;;;;;;;4.67;4.03;;;11.40;99.90;;;;;;5111107;27;20196;-50
2021/08/25 02:40:05;;;;;;;5.10;3.93;;;11.40;99.90;;;;;;5120867;27;20200;-45
2021/08/25 02:42:32;;;;;;;5.53;4.00;;;11.40;99.90;;;;;;5118446;27;20220;-47
2021/08/25 02:44:58;;;;;;;5.60;4.00;;;11.40;99.90;;;;;;5125618;27;20192;-48
2021/08/25 02:47:25;;;;;;;8.33;4.70;;;11.30;99.90;;;;;;5125264;27;20189;-50
2021/08/25 02:49:52;;;;;;;4.40;3.90;;;11.30;99.90;;;;;;5106994;27;20201;-49
2021/08/25 02:52:18;;;;;;;4.60;3.67;;;11.30;99.90;;;;;;5105945;27;20239;-50
2021/08/25 02:54:45;;;;;;;6.80;3.97;;;11.30;99.90;;;;;;5122921;27;20196;-49
2021/08/25 02:57:13;;;;;;;4.80;4.20;;;11.30;99.90;;;;;;5112977;27;20193;-46
2021/08/25 02:59:40;;;;;;;5.23;3.87;;;11.30;99.90;;;;;;5128081;27;20676;-46
2021/08/25 03:02:06;;;;;;;5.33;4.00;;;11.30;99.90;;;;;;5124258;27;20213;-43
2021/08/25 03:04:33;;;;;;;5.27;4.07;;;11.20;99.90;;;;;;5129400;27;20184;-48
2021/08/25 03:07:00;;;;;;;5.17;4.63;;;11.30;99.90;;;;;;5120386;27;20733;-45
2021/08/25 03:09:26;;;;;;;6.97;4.20;;;11.30;99.90;;;;;;5121846;27;20208;-50
2021/08/25 03:11:53;;;;;;;4.87;3.37;;;11.40;99.90;;;;;;5115680;27;20222;-43
2021/08/25 03:14:21;;;;;;;5.93;3.60;;;11.40;99.90;;;;;;5126351;27;20960;-45
2021/08/25 03:16:48;;;;;;;4.67;3.60;;;11.40;99.90;;;;;;5131742;27;20184;-47
2021/08/25 03:19:14;;;;;;;4.27;3.87;;;11.40;99.90;;;;;;5126819;27;20176;-47
2021/08/25 03:21:41;;;;;;;8.83;4.13;;;11.40;99.90;;;;;;5123030;27;20576;-50
2021/08/25 03:24:08;;;;;;;6.90;4.20;;;11.40;99.90;;;;;;5124663;27;20970;-50
2021/08/25 03:26:35;;;;;;;5.63;4.10;;;11.50;99.90;;;;;;5111960;27;20230;-47
2021/08/25 03:29:01;;;;;;;4.53;3.63;;;11.60;99.90;;;;;;5126014;27;20225;-44
2021/08/25 03:31:30;;;;;;;5.87;4.07;;;11.60;99.90;;;;;;5127316;27;20205;-51
2021/08/25 03:33:57;;;;;;;5.80;4.17;;;11.60;99.90;;;;;;5126930;27;20188;-45
2021/08/25 03:36:24;;;;;;;6.30;4.10;;;11.60;99.90;;;;;;5120650;27;20197;-50
2021/08/25 03:38:50;;;;;;;6.17;4.20;;;11.60;99.90;;;;;;5126875;27;20189;-47
2021/08/25 03:41:17;;;;;;;8.53;4.00;;;11.60;99.90;;;;;;5119182;27;20220;-50
2021/08/25 03:43:43;;;;;;;5.63;4.10;;;11.70;99.90;;;;;;5116269;27;20208;-46
2021/08/25 03:46:10;;;;;;;7.23;3.83;;;11.70;99.90;;;;;;5123661;27;20200;-48
2021/08/25 03:48:38;;;;;;;7.80;4.80;;;11.70;99.90;;;;;;5128413;27;20215;-45
2021/08/25 03:51:05;;;;;;;5.43;4.93;;;11.70;99.90;;;;;;5123529;27;20227;-44
2021/08/25 03:53:32;;;;;;;7.77;5.20;;;11.80;99.90;;;;;;5121690;27;20212;-48
2021/08/25 03:55:58;;;;;;;7.23;5.37;;;11.80;99.90;;;;;;5125290;27;20188;-44
2021/08/25 03:58:25;;;;;;;9.50;6.10;;;11.90;99.90;;;;;;5114524;27;20216;-47
2021/08/25 04:00:53;;;;;;;8.93;6.20;;;11.90;99.90;;;;;;5124571;27;20216;-49
2021/08/25 04:03:19;;;;;;;8.30;6.07;;;12.00;99.90;;;;;;5107041;27;20196;-49
2021/08/25 04:05:47;;;;;;;10.93;7.10;;;12.00;99.90;;;;;;5127414;27;20697;-48
2021/08/25 04:08:14;;;;;;;10.53;8.17;;;12.10;99.90;;;;;;5104939;27;20266;-51
2021/08/25 04:10:41;;;;;;;11.03;7.77;;;12.10;99.90;;;;;;5109099;27;20201;-48
2021/08/25 04:13:07;;;;;;;14.17;9.93;;;12.10;99.90;;;;;;5110495;27;20192;-45
2021/08/25 04:15:34;;;;;;;14.30;10.07;;;12.20;99.90;;;;;;5122841;27;20524;-51
2021/08/25 04:18:01;;;;;;;18.27;11.70;;;12.20;99.90;;;;;;5119578;27;20799;-43
2021/08/25 04:20:27;;;;;;;13.70;9.97;;;12.20;99.90;;;;;;5115581;27;20177;-55
2021/08/25 04:22:55;;;;;;;14.90;11.33;;;12.20;99.90;;;;;;5111202;27;20685;-45
2021/08/25 04:25:22;;;;;;;16.40;10.80;;;12.30;99.90;;;;;;5121359;27;20201;-48
2021/08/25 04:27:49;;;;;;;12.13;10.10;;;12.30;99.90;;;;;;5122449;27;20217;-43
2021/08/25 04:30:15;;;;;;;11.80;10.20;;;12.30;99.90;;;;;;5113068;27;20197;-48
2021/08/25 04:32:42;;;;;;;16.07;11.27;;;12.30;99.90;;;;;;5118506;27;20690;-49
2021/08/25 04:35:09;;;;;;;13.83;11.10;;;12.30;99.90;;;;;;5123158;27;20189;-50
2021/08/25 04:37:36;;;;;;;12.20;9.97;;;12.40;99.90;;;;;;5107852;27;20673;-54
2021/08/25 04:40:05;;;;;;;12.17;9.73;;;12.40;99.90;;;;;;5110718;27;20209;-45
2021/08/25 04:42:32;;;;;;;15.13;11.07;;;12.40;99.90;;;;;;5132065;27;20215;-52
2021/08/25 04:44:59;;;;;;;11.83;10.33;;;12.40;99.90;;;;;;5103455;27;20661;-47
2021/08/25 04:47:25;;;;;;;16.67;11.33;;;12.40;99.90;;;;;;5116117;27;20897;-49
2021/08/25 04:49:52;;;;;;;16.70;10.20;;;12.40;99.90;;;;;;5116353;27;20192;-45
2021/08/25 04:52:18;;;;;;;13.53;9.93;;;12.40;99.90;;;;;;5112518;27;20220;-46
2021/08/25 04:54:45;;;;;;;15.13;10.13;;;12.50;99.90;;;;;;5106476;28;20206;-46
2021/08/25 04:57:13;;;;;;;14.17;9.80;;;12.50;99.90;;;;;;5097491;27;20205;-49
2021/08/25 04:59:39;;;;;;;12.03;9.83;;;12.50;99.90;;;;;;5106547;27;20607;-53
2021/08/25 05:02:06;;;;;;;12.80;9.83;;;12.50;99.90;;;;;;5112286;27;20205;-45
2021/08/25 05:04:33;;;;;;;13.47;10.53;;;12.50;99.90;;;;;;5117965;27;20681;-50
2021/08/25 05:07:00;;;;;;;13.40;9.27;;;12.50;99.90;;;;;;5117030;27;20553;-43
2021/08/25 05:09:26;;;;;;;11.83;9.70;;;12.50;99.90;;;;;;5117545;27;20184;-51
2021/08/25 05:11:53;;;;;;;14.90;9.97;;;12.50;99.90;;;;;;5115433;27;20232;-48
2021/08/25 05:14:22;;;;;;;12.20;9.57;;;12.50;99.90;;;;;;5128878;27;20192;-51
2021/08/25 05:16:48;;;;;;;10.37;9.37;;;12.50;99.90;;;;;;5110836;27;20201;-44
2021/08/25 05:19:15;;;;;;;13.03;9.80;;;12.60;99.90;;;;;;5121987;27;20208;-51
2021/08/25 05:21:41;;;;;;;15.10;10.07;;;12.60;99.90;;;;;;5125350;27;20249;-53
2021/08/25 05:24:08;;;;;;;14.97;10.83;;;12.70;99.90;;;;;;5121367;27;20185;-47
2021/08/25 05:26:35;;;;;;;11.90;9.93;;;12.70;99.90;;;;;;5120610;27;20236;-47
2021/08/25 05:29:01;;;;;;;14.77;10.47;;;12.70;99.90;;;;;;5123680;27;20184;-44
2021/08/25 05:31:29;;;;;;;16.20;11.00;;;12.80;99.90;;;;;;5109957;27;20740;-49
2021/08/25 05:33:56;;;;;;;13.60;11.07;;;12.80;99.90;;;;;;5123254;27;20198;-46
2021/08/25 05:36:23;;;;;;;14.57;10.90;;;12.80;99.90;;;;;;5124443;27;20185;-49
2021/08/25 05:38:50;;;;;;;11.73;10.07;;;12.90;99.90;;;;;;5124754;27;20185;-45
2021/08/25 05:41:16;;;;;;;14.17;11.00;;;12.90;99.90;;;;;;5125461;27;20212;-49
2021/08/25 05:43:43;;;;;;;12.27;10.17;;;13.00;99.90;;;;;;5100789;27;20201;-50
2021/08/25 05:46:10;;;;;;;15.77;10.27;;;13.00;99.90;;;;;;5106998;27;20695;-50
2021/08/25 05:48:38;;;;;;;15.87;11.63;;;13.10;99.90;;;;;;5112043;27;20212;-45
2021/08/25 05:51:05;;;;;;;13.77;11.97;;;13.20;99.90;;;;;;5110408;27;20312;-46
2021/08/25 05:53:31;;;;;;;14.63;12.40;;;13.20;99.90;;;;;;5105984;27;20185;-44
2021/08/25 05:55:58;;;;;;;17.80;12.67;;;13.30;99.90;;;;;;5116256;27;20188;-49
2021/08/25 05:58:25;;;;;;;17.10;11.90;;;13.40;99.90;;;;;;5114503;27;20668;-45
2021/08/25 06:00:51;;;;;;;16.33;12.73;;;13.40;99.90;;;;;;5118098;27;20201;-52
2021/08/25 06:03:18;;;;;;;15.20;12.33;;;13.50;99.90;;;;;;5102767;27;20216;-51
2021/08/25 06:05:46;;;;;;;17.43;13.23;;;13.50;99.90;;;;;;5128590;27;20199;-49
2021/08/25 06:08:13;;;;;;;18.90;13.03;;;13.60;99.90;;;;;;5129960;27;20223;-47
2021/08/25 06:10:39;;;;;;;16.60;11.87;;;13.60;99.90;;;;;;5104120;27;20200;-47
2021/08/25 06:13:06;;;;;;;15.20;12.03;;;13.70;99.90;;;;;;5137745;27;20191;-47
2021/08/25 06:15:32;;;;;;;16.87;12.47;;;13.80;99.90;;;;;;5114109;27;20201;-48
2021/08/25 06:17:59;;;;;;;18.03;11.70;;;13.90;99.90;;;;;;5119113;27;20197;-46
2021/08/25 06:20:26;;;;;;;16.73;12.37;;;13.90;99.90;;;;;;5119036;27;20200;-47
2021/08/25 06:22:54;;;;;;;16.43;11.23;;;14.00;99.90;;;;;;5105516;27;20959;-47
2021/08/25 06:25:20;;;;;;;15.73;12.07;;;14.10;99.90;;;;;;5116509;28;20189;-44
2021/08/25 06:27:47;;;;;;;17.00;12.27;;;14.20;99.90;;;;;;5113930;28;20208;-52
2021/08/25 06:30:14;;;;;;;16.73;11.37;;;14.30;99.90;;;;;;5110893;27;20216;-48
2021/08/25 06:32:41;;;;;;;17.63;11.87;;;14.40;99.90;;;;;;5097579;27;20956;-50
2021/08/25 06:35:08;;;;;;;16.20;12.50;;;14.50;99.90;;;;;;5116778;27;20205;-47
2021/08/25 06:37:35;;;;;;;14.90;11.50;;;14.60;99.90;;;;;;5105016;28;20193;-45
2021/08/25 06:40:03;;;;;;;11.43;9.80;;;14.70;99.90;;;;;;5105590;28;20673;-47
2021/08/25 06:42:30;;;;;;;13.03;10.97;;;14.80;99.90;;;;;;5108194;27;20840;-48
2021/08/25 06:44:56;;;;;;;13.53;9.83;;;14.90;99.90;;;;;;5119411;27;20203;-48
2021/08/25 06:47:23;;;;;;;11.50;9.70;;;15.00;99.90;;;;;;5091119;27;20212;-45
2021/08/25 06:49:49;;;;;;;12.97;9.30;;;15.10;99.90;;;;;;5120246;27;20204;-53
2021/08/25 06:52:16;;;;;;;10.97;9.53;;;15.20;99.90;;;;;;5117938;27;20212;-46
2021/08/25 06:54:43;;;;;;;11.50;8.93;;;15.20;99.90;;;;;;5112369;27;21226;-46
2021/08/25 06:57:10;;;;;;;10.90;8.13;;;15.30;99.90;;;;;;5110460;27;20209;-45
2021/08/25 06:59:37;;;;;;;8.90;8.00;;;15.40;99.90;;;;;;5112182;27;20196;-46
2021/08/25 07:02:04;;;;;;;10.37;8.40;;;15.40;99.90;;;;;;5113456;27;20570;-46
2021/08/25 07:04:31;;;;;;;11.47;6.90;;;15.50;99.90;;;;;;5103400;27;20243;-46
2021/08/25 07:06:57;;;;;;;11.10;7.13;;;15.60;99.90;;;;;;5100578;27;20205;-48
2021/08/25 07:09:24;;;;;;;7.80;6.17;;;15.60;99.90;;;;;;5110476;27;20197;-46
2021/08/25 07:11:51;;;;;;;6.40;5.80;;;15.70;99.90;;;;;;5112990;27;20217;-47
2021/08/25 07:14:18;;;;;;;7.87;5.50;;;15.80;99.90;;;;;;5117087;27;20203;-45
2021/08/25 07:16:45;;;;;;;6.13;4.87;;;15.80;99.90;;;;;;5113741;27;20654;-46
2021/08/25 07:19:12;;;;;;;5.10;4.40;;;15.90;99.90;;;;;;5106619;27;20544;-43
2021/08/25 07:21:38;;;;;;;4.67;3.93;;;15.90;99.90;;;;;;5110815;27;20230;-45
2021/08/25 07:24:06;;;;;;;5.97;4.13;;;16.00;99.90;;;;;;5120140;27;20205;-43
2021/08/25 07:26:32;;;;;;;6.03;4.00;;;16.10;99.90;;;;;;5104566;27;20208;-45
2021/08/25 07:28:59;;;;;;;6.03;3.57;;;16.10;99.90;;;;;;5124778;27;20192;-45
2021/08/25 07:31:27;;;;;;;4.17;3.20;;;16.20;99.90;;;;;;5119029;27;20305;-45
2021/08/25 07:33:54;;;;;;;4.50;3.53;;;16.30;99.90;;;;;;5116551;27;20679;-48
2021/08/25 07:36:20;;;;;;;4.97;3.10;;;16.40;99.90;;;;;;5099820;27;20207;-44
2021/08/25 07:38:47;;;;;;;3.70;2.70;;;16.40;99.90;;;;;;5118027;27;20204;-48
2021/08/25 07:41:14;;;;;;;3.80;2.60;;;16.40;99.90;;;;;;5120545;27;20221;-44
2021/08/25 07:43:40;;;;;;;3.90;2.20;;;16.50;99.90;;;;;;5113742;27;20201;-44
2021/08/25 07:46:07;;;;;;;6.30;2.40;;;16.60;99.90;;;;;;5128832;27;20203;-44
2021/08/25 07:48:35;;;;;;;4.20;1.90;;;16.70;99.90;;;;;;5119889;27;21751;-46
2021/08/25 07:51:08;;;;;;;3.70;1.70;;;16.70;99.90;;;;;;5108071;27;20223;-44
2021/08/25 07:53:35;;;;;;;3.17;2.10;;;16.80;99.90;;;;;;5111101;27;20208;-46
2021/08/25 07:56:01;;;;;;;2.70;1.47;;;16.80;99.90;;;;;;5111753;27;20666;-46
2021/08/25 07:58:28;;;;;;;2.20;1.60;;;17.00;99.90;;;;;;5106611;27;20883;-50
2021/08/25 08:00:55;;;;;;;2.30;1.80;;;17.10;99.90;;;;;;5123234;27;20205;-46
2021/08/25 08:03:21;;;;;;;1.63;1.20;;;17.30;99.90;;;;;;5109322;27;20203;-44
2021/08/25 08:05:49;;;;;;;1.73;1.60;;;17.30;99.90;;;;;;5105984;27;20200;-47
2021/08/25 08:08:17;;;;;;;2.90;1.90;;;17.40;99.90;;;;;;5117519;27;20224;-44
2021/08/25 08:10:44;;;;;;;3.77;1.63;;;17.40;99.90;;;;;;5124597;27;20216;-49
2021/08/25 08:13:11;;;;;;;2.90;1.27;;;17.40;99.90;;;;;;5135548;27;20550;-49
2021/08/25 08:15:37;;;;;;;1.73;1.27;;;17.40;99.90;;;;;;5122625;27;20197;-50
2021/08/25 08:18:10;;;;;;;2.50;2.10;;;17.50;99.90;;;;;;5123318;27;20193;-47
2021/08/25 08:20:37;;;;;;;1.60;1.10;;;17.50;99.90;;;;;;5126063;27;20207;-51
2021/08/25 08:23:05;;;;;;;2.87;1.03;;;17.60;99.90;;;;;;5112317;27;20208;-42
2021/08/25 08:25:32;;;;;;;1.03;0.93;;;17.60;99.90;;;;;;5107748;27;20204;-47
2021/08/25 08:27:59;;;;;;;1.67;0.80;;;17.60;99.90;;;;;;5119653;27;20213;-49
2021/08/25 08:30:25;;;;;;;0.83;0.80;;;17.70;99.90;;;;;;5108222;27;20213;-46
2021/08/25 08:32:52;;;;;;;0.77;0.77;;;17.70;99.90;;;;;;5120424;27;20669;-48
2021/08/25 08:35:19;;;;;;;3.67;1.07;;;17.70;99.90;;;;;;5117269;27;20209;-49
2021/08/25 08:37:45;;;;;;;1.40;0.90;;;17.70;99.90;;;;;;5112469;27;20211;-44
2021/08/25 08:40:14;;;;;;;3.03;0.87;;;17.70;99.90;;;;;;5116881;27;20215;-44
2021/08/25 08:42:41;;;;;;;2.97;0.93;;;17.80;99.90;;;;;;5117688;27;20759;-47
2021/08/25 08:45:10;;;;;;;2.80;0.90;;;17.80;99.90;;;;;;5120231;27;20192;-43
2021/08/25 08:47:38;;;;;;;0.70;0.53;;;17.80;99.90;;;;;;5113192;27;20205;-49
2021/08/25 08:50:06;;;;;;;0.73;0.73;;;17.80;99.90;;;;;;5121068;27;20205;-42
2021/08/25 08:52:33;;;;;;;0.90;0.60;;;17.90;99.90;;;;;;5119433;27;20204;-47
2021/08/25 08:55:00;;;;;;;3.03;0.90;;;18.00;99.90;;;;;;5106063;27;20208;-45
2021/08/25 08:57:28;;;;;;;3.13;1.00;;;18.10;99.90;;;;;;5103973;27;20205;-47
2021/08/25 08:59:55;;;;;;;2.93;1.00;;;18.20;99.90;;;;;;5115204;27;20185;-50
2021/08/25 09:02:38;;;;;;;1.53;0.50;;;18.30;99.90;;;;;;5112267;27;20224;-46
2021/08/25 09:05:15;;;;;;;0.90;0.50;;;18.40;99.90;;;;;;5105099;27;20200;-49
2021/08/25 09:07:47;;;;;;;2.60;0.67;;;18.20;99.90;;;;;;5118948;27;20226;-44
2021/08/25 09:10:14;;;;;;;1.83;0.60;;;18.10;99.90;;;;;;5108894;27;20209;-44
2021/08/25 09:12:49;;;;;;;0.60;0.60;;;18.00;99.90;;;;;;5121754;27;20213;-45
2021/08/25 09:15:19;;;;;;;1.53;0.53;;;18.00;99.90;;;;;;5116900;27;20258;-46
2021/08/25 09:17:45;;;;;;;3.93;0.63;;;17.90;99.90;;;;;;5109393;27;20212;-47
2021/08/25 09:20:13;;;;;;;0.63;0.50;;;18.00;99.90;;;;;;5120976;27;20191;-52
2021/08/25 09:22:40;;;;;;;3.00;0.70;;;18.10;99.90;;;;;;5114345;27;20221;-47
2021/08/25 09:25:07;;;;;;;2.87;0.67;;;18.20;99.90;;;;;;5112253;27;20197;-47
2021/08/25 09:27:33;;;;;;;0.93;0.93;;;18.20;99.90;;;;;;5119342;27;20217;-45
2021/08/25 09:30:05;;;;;;;3.80;1.00;;;18.10;99.90;;;;;;5116056;27;20200;-46
2021/08/25 09:32:33;;;;;;;0.90;0.50;;;17.90;99.90;;;;;;5133430;27;20212;-45
2021/08/25 09:35:01;;;;;;;0.87;0.60;;;17.80;99.90;;;;;;5120234;27;20226;-49
2021/08/25 09:37:29;;;;;;;1.53;0.50;;;17.80;99.90;;;;;;5122455;27;20193;-48
2021/08/25 09:40:00;;;;;;;0.90;0.70;;;17.80;99.90;;;;;;5109171;27;20997;-48
2021/08/25 09:42:27;;;;;;;1.10;0.80;;;17.80;99.90;;;;;;5117853;27;20228;-49
2021/08/25 09:45:07;;;;;;;3.90;0.90;;;17.60;99.90;;;;;;5118641;27;20452;-46
2021/08/25 09:47:51;;;;;;;1.93;0.63;;;17.60;99.90;;;;;;5128966;27;20215;-46
2021/08/25 09:50:20;;;;;;;2.33;0.50;;;17.50;99.90;;;;;;5114929;27;20586;-46
2021/08/25 09:52:47;;;;;;;1.63;0.50;;;17.60;99.90;;;;;;5125821;27;20696;-47
2021/08/25 09:55:15;;;;;;;1.93;1.17;;;17.70;99.90;;;;;;5110818;27;20276;-45
2021/08/25 09:57:43;;;;;;;1.53;0.50;;;17.90;99.90;;;;;;5118117;27;20197;-42
2021/08/25 10:00:13;;;;;;;1.10;0.30;;;18.00;99.90;;;;;;5120145;27;20180;-46
2021/08/25 10:02:41;;;;;;;1.27;0.50;;;18.00;99.90;;;;;;5127305;27;20227;-46
2021/08/25 10:05:24;;;;;;;2.60;0.70;;;18.10;99.90;;;;;;5110722;27;20685;-50
2021/08/25 10:07:51;;;;;;;1.73;0.90;;;18.20;99.90;;;;;;5105818;27;20289;-49
2021/08/25 10:10:18;;;;;;;3.90;0.70;;;18.30;99.90;;;;;;5111591;27;20208;-47
2021/08/25 10:12:44;;;;;;;2.10;0.63;;;18.30;99.90;;;;;;5092421;27;20216;-48
2021/08/25 10:15:45;;;;;;;2.73;0.77;;;18.30;99.90;;;;;;5124945;27;20217;-46
2021/08/25 10:18:29;;;;;;;2.50;0.60;;;18.30;99.90;;;;;;5120235;27;20193;-47
2021/08/25 10:20:57;;;;;;;1.33;0.80;;;18.30;99.90;;;;;;5114072;27;20231;-45
2021/08/25 10:24:02;;;;;;;1.63;0.80;;;18.20;99.90;;;;;;5123171;27;20193;-43
2021/08/25 10:26:29;;;;;;;1.23;0.60;;;18.20;99.90;;;;;;5121564;27;20245;-47
2021/08/25 10:29:11;;;;;;;1.90;0.70;;;18.20;99.90;;;;;;5112259;27;20212;-46
2021/08/25 10:32:17;;;;;;;2.80;0.80;;;18.20;99.90;;;;;;5115060;27;20224;-44
2021/08/25 10:34:44;;;;;;;1.13;0.60;;;18.20;99.90;;;;;;5125145;27;20930;-49
2021/08/25 10:37:28;;;;;;;2.30;1.00;;;18.00;99.90;;;;;;5101054;27;20264;-50
2021/08/25 10:40:03;;;;;;;2.80;0.80;;;17.90;99.90;;;;;;5116374;27;20283;-49
2021/08/25 10:42:47;;;;;;;1.07;0.50;;;17.90;99.90;;;;;;5096747;27;20237;-45
2021/08/25 10:45:15;;;;;;;2.07;0.67;;;17.90;99.90;;;;;;5112777;27;20194;-44
2021/08/25 10:48:02;;;;;;;1.03;0.50;;;17.90;99.90;;;;;;5133109;27;20184;-49
2021/08/25 10:50:49;;;;;;;2.23;0.60;;;17.90;99.90;;;;;;5119450;27;20864;-45
2021/08/25 10:53:38;;;;;;;1.27;0.50;;;17.90;99.90;;;;;;5106973;27;20265;-45
2021/08/25 10:56:11;;;;;;;2.47;0.70;;;17.90;99.90;;;;;;5104073;27;20307;-42
2021/08/25 10:58:45;;;;;;;1.20;0.60;;;17.80;99.90;;;;;;5091994;27;20596;-47
2021/08/25 11:01:25;;;;;;;2.30;0.90;;;17.80;99.90;;;;;;5118862;27;20216;-45
2021/08/25 11:03:54;;;;;;;1.73;0.93;;;17.80;99.90;;;;;;5107475;27;20761;-44
2021/08/25 11:06:35;;;;;;;4.53;0.83;;;17.70;99.90;;;;;;5118798;27;20201;-51
2021/08/25 11:09:25;;;;;;;2.67;0.70;;;17.70;99.90;;;;;;5122494;27;20208;-46
2021/08/25 11:11:55;;;;;;;1.57;0.63;;;17.70;99.90;;;;;;5120818;27;20231;-46
2021/08/25 11:14:24;;;;;;;1.40;0.63;;;17.70;99.90;;;;;;5106178;27;20202;-43
2021/08/25 11:16:53;;;;;;;1.27;0.60;;;17.60;99.90;;;;;;5109914;27;20202;-43
2021/08/25 11:19:26;;;;;;;5.10;0.60;;;17.50;99.90;;;;;;5120618;27;20682;-43
2021/08/25 11:21:54;;;;;;;1.10;0.50;;;17.50;99.90;;;;;;5114118;27;20232;-45
2021/08/25 11:24:21;;;;;;;0.90;0.50;;;17.40;99.90;;;;;;5114289;27;20202;-47
2021/08/25 11:26:48;;;;;;;1.40;0.77;;;17.40;99.90;;;;;;5120288;27;20208;-43
2021/08/25 11:29:19;;;;;;;0.80;0.53;;;17.30;99.90;;;;;;5119097;27;20956;-47
2021/08/25 11:31:47;;;;;;;2.10;0.60;;;17.30;99.90;;;;;;5105376;27;20224;-45
2021/08/25 11:34:15;;;;;;;2.37;0.83;;;17.30;99.90;;;;;;5121380;27;20201;-47
2021/08/25 11:37:04;;;;;;;1.73;0.67;;;17.30;99.90;;;;;;5119654;27;20204;-44
2021/08/25 11:39:31;;;;;;;3.43;0.80;;;17.30;99.90;;;;;;5117653;27;20202;-49
2021/08/25 11:41:58;;;;;;;5.90;0.83;;;17.20;99.90;;;;;;5106946;27;20212;-50
2021/08/25 11:44:42;;;;;;;5.57;1.00;;;17.20;99.90;;;;;;5133742;27;20189;-46
2021/08/25 11:47:17;;;;;;;3.93;0.83;;;17.20;99.90;;;;;;5108439;27;20200;-48
2021/08/25 11:49:50;;;;;;;0.70;0.70;;;17.20;99.90;;;;;;5122884;27;20211;-42
2021/08/25 11:52:20;;;;;;;2.10;0.70;;;17.20;99.90;;;;;;5118861;27;20865;-47
2021/08/25 11:54:47;;;;;;;1.70;0.80;;;17.20;99.90;;;;;;5112830;27;20197;-45
2021/08/25 11:57:15;;;;;;;7.47;0.90;;;17.20;99.90;;;;;;5121634;27;20200;-47
2021/08/25 12:00:01;;;;;;;0.97;0.60;;;17.20;99.90;;;;;;5114856;27;20239;-47
2021/08/25 12:02:27;;;;;;;1.40;0.80;;;17.10;99.90;;;;;;5102111;27;20869;-53
2021/08/25 12:04:54;;;;;;;1.63;0.40;;;17.10;99.90;;;;;;5117117;27;20667;-50
2021/08/25 12:07:22;;;;;;;2.87;0.70;;;17.20;99.90;;;;;;5117888;27;20201;-51
2021/08/25 12:09:49;;;;;;;2.03;0.70;;;17.30;99.90;;;;;;5114567;27;20219;-42
2021/08/25 12:12:15;;;;;;;1.60;0.70;;;17.20;99.90;;;;;;5117618;27;20220;-48
2021/08/25 12:14:52;;;;;;;6.23;1.00;;;17.20;99.90;;;;;;5111238;27;20545;-47
2021/08/25 12:17:19;;;;;;;13.27;1.63;;;17.20;99.90;;;;;;5110514;27;20208;-48
2021/08/25 12:19:57;;;;;;;1.03;0.67;;;17.10;99.90;;;;;;5121654;27;20200;-45
2021/08/25 12:22:26;;;;;;;0.90;0.67;;;17.10;99.90;;;;;;5120771;27;20239;-45
2021/08/25 12:24:53;;;;;;;1.30;0.73;;;17.00;99.90;;;;;;5112877;27;20201;-42
2021/08/25 12:27:21;;;;;;;1.47;0.70;;;17.00;99.90;;;;;;5111492;27;20942;-45
2021/08/25 12:29:48;;;;;;;2.20;0.90;;;17.10;99.90;;;;;;5106293;27;20702;-44
2021/08/25 12:32:15;;;;;;;1.20;0.67;;;17.10;99.90;;;;;;5115203;27;21041;-43
2021/08/25 12:34:55;;;;;;;1.33;0.90;;;17.10;99.90;;;;;;5105907;27;20215;-45
2021/08/25 12:37:22;;;;;;;3.37;0.93;;;17.00;99.90;;;;;;5110695;27;20223;-47
2021/08/25 12:39:50;;;;;;;2.20;0.90;;;17.00;99.90;;;;;;5104571;27;20200;-44
2021/08/25 12:42:16;;;;;;;2.57;0.40;;;17.00;99.90;;;;;;5116449;27;20216;-43
2021/08/25 12:44:43;;;;;;;0.63;0.63;;;17.10;99.90;;;;;;5110713;27;20565;-43
2021/08/25 12:47:12;;;;;;;1.13;0.60;;;17.10;99.90;;;;;;5111172;27;20200;-43
2021/08/25 12:49:39;;;;;;;1.50;0.40;;;17.10;99.90;;;;;;5097792;27;20212;-42